createdAt,value
2022-08-27T00:02:07.133Z,18.73
2022-08-27T00:04:35.759Z,18.79
2022-08-27T00:07:05.437Z,18.89
2022-08-27T00:09:33.260Z,18.88
2022-08-27T00:12:01.290Z,18.86
2022-08-27T00:14:29.693Z,18.75
2022-08-27T00:16:58.001Z,18.78
2022-08-27T00:19:25.998Z,18.81
2022-08-27T00:21:55.833Z,18.66
2022-08-27T00:24:23.834Z,18.52
2022-08-27T00:26:53.485Z,18.44
2022-08-27T00:29:21.825Z,18.39
2022-08-27T00:31:51.916Z,18.49
2022-08-27T00:34:23.011Z,18.49
2022-08-27T00:36:51.634Z,18.45
2022-08-27T00:39:20.632Z,18.29
2022-08-27T00:41:49.005Z,18.24
2022-08-27T00:44:17.374Z,18.13
2022-08-27T00:46:49.859Z,18.09
2022-08-27T00:49:20.888Z,18.11
2022-08-27T00:52:00.298Z,18.10
2022-08-27T00:54:28.979Z,17.99
2022-08-27T00:56:58.934Z,17.92
2022-08-27T00:59:33.054Z,17.85
2022-08-27T01:02:19.388Z,17.78
2022-08-27T01:05:05.317Z,17.79
2022-08-27T01:07:37.845Z,17.76
2022-08-27T01:10:10.855Z,17.69
2022-08-27T01:12:39.745Z,17.63
2022-08-27T01:15:13.465Z,17.61
2022-08-27T01:17:45.153Z,17.54
2022-08-27T01:20:21.272Z,17.48
2022-08-27T01:23:12.073Z,17.51
2022-08-27T01:25:43.542Z,17.50
2022-08-27T01:28:12.506Z,17.40
2022-08-27T01:30:41.010Z,17.39
2022-08-27T01:33:16.963Z,17.36
2022-08-27T01:35:47.855Z,17.32
2022-08-27T01:38:30.116Z,17.36
2022-08-27T01:41:00.825Z,17.35
2022-08-27T01:43:31.393Z,17.29
2022-08-27T01:45:59.524Z,17.26
2022-08-27T01:48:27.438Z,17.22
2022-08-27T01:50:55.270Z,17.19
2022-08-27T01:53:25.322Z,17.28
2022-08-27T01:55:54.667Z,17.20
2022-08-27T01:58:25.320Z,17.17
2022-08-27T02:00:56.927Z,17.11
2022-08-27T02:03:27.047Z,17.07
2022-08-27T02:05:55.000Z,17.10
2022-08-27T02:08:22.934Z,17.12
2022-08-27T02:10:51.713Z,17.05
2022-08-27T02:13:19.891Z,17.07
2022-08-27T02:15:47.789Z,17.03
2022-08-27T02:18:16.262Z,17.01
2022-08-27T02:20:47.313Z,16.98
2022-08-27T02:23:16.738Z,16.94
2022-08-27T02:25:47.265Z,16.79
2022-08-27T02:28:15.284Z,16.80
2022-08-27T02:30:43.289Z,16.79
2022-08-27T02:33:11.202Z,16.86
2022-08-27T02:35:40.619Z,16.98
2022-08-27T02:38:08.811Z,16.86
2022-08-27T02:40:37.562Z,16.80
2022-08-27T02:43:05.696Z,16.80
2022-08-27T02:45:33.807Z,16.81
2022-08-27T02:48:04.846Z,16.73
2022-08-27T02:50:32.707Z,16.67
2022-08-27T02:53:02.571Z,16.64
2022-08-27T02:55:31.431Z,16.61
2022-08-27T02:57:59.316Z,16.56
2022-08-27T03:00:29.022Z,16.52
2022-08-27T03:02:58.039Z,16.47
2022-08-27T03:05:26.675Z,16.43
2022-08-27T03:07:54.407Z,16.43
2022-08-27T03:10:22.733Z,16.39
2022-08-27T03:12:50.670Z,16.38
2022-08-27T03:15:20.175Z,16.35
2022-08-27T03:18:06.672Z,16.36
2022-08-27T03:20:40.807Z,16.39
2022-08-27T03:23:10.282Z,16.37
2022-08-27T03:25:38.715Z,16.36
2022-08-27T03:28:09.552Z,16.36
2022-08-27T03:30:59.607Z,16.34
2022-08-27T03:33:29.144Z,16.34
2022-08-27T03:35:57.227Z,16.34
2022-08-27T03:38:25.735Z,16.34
2022-08-27T03:40:54.509Z,16.33
2022-08-27T03:43:23.556Z,16.33
2022-08-27T03:45:57.535Z,16.45
2022-08-27T03:48:31.956Z,16.40
2022-08-27T03:51:05.313Z,16.37
2022-08-27T03:53:33.473Z,16.34
2022-08-27T03:56:01.762Z,16.37
2022-08-27T03:58:29.791Z,16.36
2022-08-27T04:00:57.827Z,16.42
2022-08-27T04:03:25.674Z,16.42
2022-08-27T04:05:55.254Z,16.43
2022-08-27T04:08:24.342Z,16.44
2022-08-27T04:10:55.055Z,16.46
2022-08-27T04:13:23.828Z,16.53
2022-08-27T04:15:54.139Z,16.60
2022-08-27T04:18:21.994Z,16.60
2022-08-27T04:20:52.464Z,16.65
2022-08-27T04:23:21.047Z,16.72
2022-08-27T04:25:49.407Z,16.81
2022-08-27T04:28:17.620Z,16.93
2022-08-27T04:30:47.264Z,17.14
2022-08-27T04:33:15.617Z,17.18
2022-08-27T04:35:43.625Z,17.19
2022-08-27T04:38:11.702Z,17.19
2022-08-27T04:40:58.287Z,17.24
2022-08-27T04:43:28.351Z,17.28
2022-08-27T04:45:56.649Z,17.32
2022-08-27T04:48:25.806Z,17.43
2022-08-27T04:50:53.694Z,17.51
2022-08-27T04:53:22.145Z,17.55
2022-08-27T04:55:53.653Z,17.68
2022-08-27T04:58:23.808Z,17.78
2022-08-27T05:00:57.022Z,17.89
2022-08-27T05:03:26.237Z,17.99
2022-08-27T05:05:59.581Z,18.11
2022-08-27T05:08:27.644Z,18.17
2022-08-27T05:10:55.767Z,18.25
2022-08-27T05:13:24.578Z,18.39
2022-08-27T05:16:03.577Z,18.50
2022-08-27T05:18:34.222Z,18.58
2022-08-27T05:21:06.982Z,18.66
2022-08-27T05:23:39.747Z,18.75
2022-08-27T05:26:09.018Z,18.86
2022-08-27T05:28:37.023Z,18.96
2022-08-27T05:31:08.813Z,19.16
2022-08-27T05:33:38.581Z,19.26
2022-08-27T05:36:07.489Z,19.45
2022-08-27T05:38:36.276Z,19.51
2022-08-27T05:41:04.894Z,19.64
2022-08-27T05:43:32.832Z,19.71
2022-08-27T05:46:04.245Z,19.84
2022-08-27T05:48:33.841Z,20.05
2022-08-27T05:51:16.199Z,20.22
2022-08-27T05:53:59.918Z,20.21
2022-08-27T05:56:30.288Z,20.45
2022-08-27T05:59:17.124Z,20.44
2022-08-27T06:01:48.499Z,20.60
2022-08-27T06:04:17.790Z,20.71
2022-08-27T06:06:47.566Z,20.84
2022-08-27T06:09:19.152Z,20.99
2022-08-27T06:11:48.195Z,21.26
2022-08-27T06:14:16.264Z,21.27
2022-08-27T06:16:44.448Z,21.26
2022-08-27T06:19:12.859Z,21.48
2022-08-27T06:21:42.512Z,21.75
2022-08-27T06:24:13.000Z,21.87
2022-08-27T06:26:44.902Z,21.91
2022-08-27T06:29:13.936Z,22.01
2022-08-27T06:31:43.048Z,22.05
2022-08-27T06:34:11.908Z,22.22
2022-08-27T06:36:42.010Z,22.43
2022-08-27T06:39:13.820Z,22.49
2022-08-27T06:41:43.488Z,22.53
2022-08-27T06:44:15.100Z,22.62
2022-08-27T06:46:43.908Z,22.68
2022-08-27T06:49:13.289Z,22.94
2022-08-27T06:51:44.814Z,23.07
2022-08-27T06:54:13.701Z,23.16
2022-08-27T06:56:42.579Z,23.22
2022-08-27T06:59:12.410Z,23.27
2022-08-27T07:01:43.496Z,23.49
2022-08-27T07:04:14.274Z,23.65
2022-08-27T07:06:42.581Z,23.59
2022-08-27T07:09:10.862Z,23.83
2022-08-27T07:11:39.522Z,23.97
2022-08-27T07:14:08.995Z,24.20
2022-08-27T07:16:39.638Z,24.29
2022-08-27T07:19:09.546Z,24.38
2022-08-27T07:21:40.008Z,24.55
2022-08-27T07:24:09.238Z,24.66
2022-08-27T07:26:41.310Z,24.77
2022-08-27T07:29:11.219Z,24.98
2022-08-27T07:31:39.420Z,25.09
2022-08-27T07:34:08.055Z,25.22
2022-08-27T07:36:36.302Z,25.40
2022-08-27T07:39:05.347Z,25.66
2022-08-27T07:41:59.377Z,26.65
2022-08-27T07:44:34.418Z,29.23
2022-08-27T07:47:03.082Z,31.65
2022-08-27T07:49:32.057Z,33.55
2022-08-27T07:51:59.824Z,35.53
2022-08-27T07:54:27.718Z,36.79
2022-08-27T07:56:56.330Z,38.07
2022-08-27T07:59:26.209Z,39.17
2022-08-27T08:01:55.239Z,39.38
2022-08-27T08:04:23.842Z,39.88
2022-08-27T08:06:51.741Z,41.25
2022-08-27T08:09:22.278Z,41.50
2022-08-27T08:11:52.036Z,41.67
2022-08-27T08:14:20.332Z,42.29
2022-08-27T08:16:48.406Z,43.09
2022-08-27T08:19:17.379Z,43.10
2022-08-27T08:21:45.207Z,43.44
2022-08-27T08:24:12.951Z,44.09
2022-08-27T08:26:42.154Z,43.84
2022-08-27T08:29:14.737Z,43.54
2022-08-27T08:31:50.101Z,43.85
2022-08-27T08:34:19.971Z,43.79
2022-08-27T08:36:53.939Z,43.68
2022-08-27T08:39:23.552Z,43.88
2022-08-27T08:41:58.998Z,43.88
2022-08-27T08:44:36.157Z,44.24
2022-08-27T08:47:38.371Z,44.02
2022-08-27T08:50:21.207Z,44.80
2022-08-27T08:53:20.137Z,44.94
2022-08-27T08:55:55.141Z,45.20
2022-08-27T08:58:35.526Z,45.57
2022-08-27T09:01:07.229Z,45.08
2022-08-27T09:03:40.885Z,45.21
2022-08-27T09:06:18.397Z,45.08
2022-08-27T09:08:48.000Z,45.20
2022-08-27T09:11:30.087Z,45.35
2022-08-27T09:14:07.529Z,45.02
2022-08-27T09:16:39.016Z,44.61
2022-08-27T09:19:07.697Z,45.13
2022-08-27T09:21:45.044Z,45.40
2022-08-27T09:24:15.963Z,45.35
2022-08-27T09:26:45.076Z,44.27
2022-08-27T09:29:16.058Z,44.51
2022-08-27T09:31:56.572Z,44.74
2022-08-27T09:34:27.702Z,45.06
2022-08-27T09:37:01.183Z,44.98
2022-08-27T09:39:41.730Z,44.55
2022-08-27T09:42:22.420Z,44.37
2022-08-27T09:44:53.538Z,44.27
2022-08-27T09:47:22.138Z,43.84
2022-08-27T09:50:00.152Z,44.00
2022-08-27T09:52:51.323Z,44.05
2022-08-27T09:55:38.878Z,43.47
2022-08-27T09:58:27.492Z,43.30
2022-08-27T10:01:06.020Z,43.47
2022-08-27T10:03:34.650Z,43.31
2022-08-27T10:06:02.515Z,43.19
2022-08-27T10:08:42.889Z,42.94
2022-08-27T10:11:32.977Z,42.47
2022-08-27T10:14:13.181Z,42.67
2022-08-27T10:16:58.316Z,42.64
2022-08-27T10:19:46.768Z,41.23
2022-08-27T10:22:31.503Z,39.72
2022-08-27T10:25:09.913Z,38.49
2022-08-27T10:27:41.039Z,37.48
2022-08-27T10:30:19.022Z,36.25
2022-08-27T10:33:02.940Z,35.68
2022-08-27T10:35:48.309Z,35.15
2022-08-27T10:38:30.481Z,34.61
2022-08-27T10:41:18.509Z,34.29
2022-08-27T10:43:55.366Z,34.00
2022-08-27T10:46:38.417Z,33.79
2022-08-27T10:49:25.262Z,33.39
2022-08-27T10:52:10.065Z,33.13
2022-08-27T10:54:52.593Z,32.89
2022-08-27T10:57:55.137Z,32.98
2022-08-27T11:00:30.143Z,32.98
2022-08-27T11:03:07.381Z,32.93
2022-08-27T11:05:48.353Z,33.09
2022-08-27T11:08:42.139Z,33.11
2022-08-27T11:12:10.475Z,32.96
2022-08-27T11:14:37.628Z,32.78
2022-08-27T11:17:15.622Z,32.81
2022-08-27T11:19:50.749Z,32.86
2022-08-27T11:22:35.057Z,32.80
2022-08-27T11:25:22.549Z,32.70
2022-08-27T11:27:53.767Z,32.82
2022-08-27T11:30:49.112Z,32.73
2022-08-27T11:33:27.548Z,32.89
2022-08-27T11:36:18.508Z,32.84
2022-08-27T11:39:01.579Z,32.77
2022-08-27T11:41:59.191Z,32.50
2022-08-27T11:44:28.760Z,32.64
2022-08-27T11:47:09.690Z,32.66
2022-08-27T11:49:48.476Z,32.78
2022-08-27T11:52:37.606Z,32.83
2022-08-27T11:55:25.126Z,32.81
2022-08-27T11:58:08.427Z,32.80
2022-08-27T12:00:39.996Z,32.70
2022-08-27T12:03:22.515Z,32.84
2022-08-27T12:05:53.848Z,32.77
2022-08-27T12:08:24.654Z,32.64
2022-08-27T12:11:03.914Z,32.72
2022-08-27T12:13:41.876Z,32.45
2022-08-27T12:16:39.905Z,32.46
2022-08-27T12:19:16.293Z,32.60
2022-08-27T12:22:21.849Z,32.55
2022-08-27T12:24:59.736Z,32.50
2022-08-27T12:27:34.880Z,32.44
2022-08-27T12:30:28.050Z,32.49
2022-08-27T12:32:59.630Z,32.59
2022-08-27T12:35:44.259Z,32.68
2022-08-27T12:38:15.968Z,32.79
2022-08-27T12:40:53.357Z,32.99
2022-08-27T12:43:26.222Z,33.03
2022-08-27T12:46:00.862Z,32.81
2022-08-27T12:48:32.394Z,32.81
2022-08-27T12:51:39.121Z,32.65
2022-08-27T12:54:19.153Z,32.35
2022-08-27T12:57:08.642Z,32.23
2022-08-27T12:59:42.462Z,32.36
2022-08-27T13:02:48.073Z,32.25
2022-08-27T13:05:21.053Z,32.08
2022-08-27T13:07:51.113Z,32.13
2022-08-27T13:10:29.539Z,32.26
2022-08-27T13:13:12.354Z,32.03
2022-08-27T13:15:52.845Z,32.16
2022-08-27T13:18:21.798Z,32.29
2022-08-27T13:21:00.350Z,32.17
2022-08-27T13:23:28.438Z,32.26
2022-08-27T13:26:03.495Z,32.47
2022-08-27T13:28:34.104Z,32.33
2022-08-27T13:31:03.921Z,32.39
2022-08-27T13:33:35.211Z,32.38
2022-08-27T13:36:04.173Z,32.44
2022-08-27T13:38:36.302Z,32.41
2022-08-27T13:41:27.254Z,32.52
2022-08-27T13:43:59.139Z,32.43
2022-08-27T13:46:31.312Z,32.44
2022-08-27T13:49:00.442Z,32.32
2022-08-27T13:51:34.680Z,32.48
2022-08-27T13:54:18.402Z,32.48
2022-08-27T13:56:51.781Z,32.34
2022-08-27T13:59:19.464Z,32.32
2022-08-27T14:02:02.896Z,32.35
2022-08-27T14:04:48.192Z,32.42
2022-08-27T14:07:36.947Z,32.49
2022-08-27T14:10:32.567Z,32.43
2022-08-27T14:13:22.747Z,32.08
2022-08-27T14:15:55.986Z,31.76
2022-08-27T14:18:42.533Z,31.57
2022-08-27T14:21:16.468Z,31.29
2022-08-27T14:23:44.540Z,31.00
2022-08-27T14:26:15.663Z,30.90
2022-08-27T14:28:43.633Z,30.75
2022-08-27T14:31:12.259Z,30.46
2022-08-27T14:33:40.399Z,30.25
2022-08-27T14:36:09.430Z,30.13
2022-08-27T14:38:40.982Z,30.02
2022-08-27T14:41:09.281Z,30.03
2022-08-27T14:43:37.883Z,30.09
2022-08-27T14:46:11.632Z,30.08
2022-08-27T14:48:43.442Z,30.18
2022-08-27T14:51:32.358Z,30.32
2022-08-27T14:54:00.189Z,30.49
2022-08-27T14:56:28.252Z,30.62
2022-08-27T14:58:56.143Z,30.68
2022-08-27T15:01:26.306Z,30.73
2022-08-27T15:03:56.002Z,30.77
2022-08-27T15:06:25.195Z,30.72
2022-08-27T15:08:54.864Z,30.63
2022-08-27T15:11:26.510Z,30.68
2022-08-27T15:13:55.086Z,30.61
2022-08-27T15:16:34.278Z,30.58
2022-08-27T15:19:03.373Z,30.61
2022-08-27T15:21:31.584Z,30.52
2022-08-27T15:24:02.819Z,30.57
2022-08-27T15:26:31.747Z,30.45
2022-08-27T15:29:02.932Z,30.40
2022-08-27T15:31:35.000Z,30.35
2022-08-27T15:34:03.124Z,30.30
2022-08-27T15:36:30.900Z,30.29
2022-08-27T15:38:58.892Z,30.18
2022-08-27T15:41:29.247Z,30.22
2022-08-27T15:43:58.002Z,30.10
2022-08-27T15:46:26.363Z,29.98
2022-08-27T15:48:54.575Z,29.99
2022-08-27T15:51:32.150Z,30.00
2022-08-27T15:54:01.229Z,29.89
2022-08-27T15:56:33.862Z,29.78
2022-08-27T15:59:02.662Z,29.62
2022-08-27T16:01:34.277Z,29.60
2022-08-27T16:04:03.204Z,29.51
2022-08-27T16:06:31.259Z,29.50
2022-08-27T16:08:59.321Z,29.40
2022-08-27T16:11:28.014Z,29.35
2022-08-27T16:13:55.936Z,29.23
2022-08-27T16:16:28.489Z,29.17
2022-08-27T16:18:56.628Z,29.12
2022-08-27T16:21:24.474Z,28.99
2022-08-27T16:23:52.469Z,28.89
2022-08-27T16:26:20.205Z,28.84
2022-08-27T16:28:48.158Z,28.72
2022-08-27T16:31:16.302Z,28.65
2022-08-27T16:33:44.290Z,28.58
2022-08-27T16:36:13.024Z,28.50
2022-08-27T16:38:41.026Z,28.38
2022-08-27T16:41:09.201Z,28.24
2022-08-27T16:43:38.548Z,28.25
2022-08-27T16:46:07.314Z,28.07
2022-08-27T16:49:01.511Z,27.99
2022-08-27T16:51:32.626Z,27.81
2022-08-27T16:54:01.878Z,27.72
2022-08-27T16:56:31.013Z,27.63
2022-08-27T16:59:01.518Z,27.56
2022-08-27T17:01:29.663Z,27.37
2022-08-27T17:04:13.373Z,27.21
2022-08-27T17:06:46.202Z,27.01
2022-08-27T17:09:14.172Z,26.95
2022-08-27T17:11:43.427Z,26.93
2022-08-27T17:14:12.267Z,26.76
2022-08-27T17:16:41.632Z,26.54
2022-08-27T17:19:10.929Z,26.44
2022-08-27T17:21:45.753Z,26.25
2022-08-27T17:24:13.995Z,26.23
2022-08-27T17:26:41.852Z,26.26
2022-08-27T17:29:09.703Z,26.15
2022-08-27T17:31:40.574Z,25.96
2022-08-27T17:34:17.865Z,25.70
2022-08-27T17:36:46.269Z,25.45
2022-08-27T17:39:14.794Z,25.25
2022-08-27T17:41:48.857Z,25.03
2022-08-27T17:44:27.302Z,24.82
2022-08-27T17:46:58.413Z,24.69
2022-08-27T17:49:27.325Z,24.64
2022-08-27T17:51:58.937Z,24.62
2022-08-27T17:54:36.770Z,24.40
2022-08-27T17:57:12.374Z,24.20
2022-08-27T17:59:40.205Z,24.02
2022-08-27T18:02:08.927Z,23.83
2022-08-27T18:04:37.829Z,23.75
2022-08-27T18:07:05.949Z,23.60
2022-08-27T18:09:33.651Z,23.50
2022-08-27T18:12:01.808Z,23.47
2022-08-27T18:14:29.812Z,23.31
2022-08-27T18:16:58.315Z,23.21
2022-08-27T18:19:26.457Z,23.09
2022-08-27T18:21:54.863Z,22.96
2022-08-27T18:24:22.702Z,22.84
2022-08-27T18:26:50.508Z,22.77
2022-08-27T18:29:18.818Z,22.72
2022-08-27T18:31:46.598Z,22.73
2022-08-27T18:34:18.757Z,22.71
2022-08-27T18:36:48.751Z,22.52
2022-08-27T18:39:16.525Z,22.36
2022-08-27T18:41:44.400Z,22.22
2022-08-27T18:44:17.124Z,22.13
2022-08-27T18:46:45.983Z,22.04
2022-08-27T18:49:13.961Z,22.01
2022-08-27T18:51:45.459Z,21.88
2022-08-27T18:54:16.206Z,21.77
2022-08-27T18:56:43.907Z,21.74
2022-08-27T18:59:13.068Z,21.66
2022-08-27T19:01:42.091Z,21.57
2022-08-27T19:04:10.436Z,21.53
2022-08-27T19:06:38.188Z,21.48
2022-08-27T19:09:06.285Z,21.39
2022-08-27T19:11:34.372Z,21.31
2022-08-27T19:14:02.086Z,21.29
2022-08-27T19:16:41.749Z,21.21
2022-08-27T19:19:11.235Z,21.23
2022-08-27T19:21:39.308Z,21.14
2022-08-27T19:24:07.714Z,21.00
2022-08-27T19:26:35.977Z,20.87
2022-08-27T19:29:04.561Z,20.78
2022-08-27T19:31:33.519Z,20.77
2022-08-27T19:34:01.308Z,20.77
2022-08-27T19:36:29.384Z,20.65
2022-08-27T19:38:57.238Z,20.65
2022-08-27T19:41:27.926Z,20.61
2022-08-27T19:43:56.050Z,20.49
2022-08-27T19:46:25.744Z,20.46
2022-08-27T19:48:55.397Z,20.37
2022-08-27T19:51:23.289Z,20.31
2022-08-27T19:53:51.192Z,20.32
2022-08-27T19:56:19.059Z,20.24
2022-08-27T19:58:47.025Z,20.33
2022-08-27T20:01:14.809Z,20.24
2022-08-27T20:03:42.865Z,20.23
2022-08-27T20:06:11.250Z,20.20
2022-08-27T20:08:39.547Z,20.20
2022-08-27T20:11:07.297Z,20.23
2022-08-27T20:13:35.450Z,20.19
2022-08-27T20:16:06.331Z,20.04
2022-08-27T20:18:36.642Z,19.96
2022-08-27T20:21:05.799Z,19.94
2022-08-27T20:23:34.392Z,19.89
2022-08-27T20:26:02.528Z,19.87
2022-08-27T20:28:39.746Z,19.85
2022-08-27T20:31:08.775Z,19.85
2022-08-27T20:33:36.807Z,19.83
2022-08-27T20:36:06.626Z,19.74
2022-08-27T20:38:35.562Z,19.66
2022-08-27T20:41:03.368Z,19.62
2022-08-27T20:43:31.149Z,19.57
2022-08-27T20:45:59.777Z,19.44
2022-08-27T20:48:28.387Z,19.36
2022-08-27T20:50:56.289Z,19.30
2022-08-27T20:53:26.135Z,19.18
2022-08-27T20:55:57.334Z,19.05
2022-08-27T20:58:44.592Z,18.97
2022-08-27T21:01:12.517Z,18.87
2022-08-27T21:03:40.610Z,18.78
2022-08-27T21:06:08.565Z,18.76
2022-08-27T21:08:39.339Z,18.72
2022-08-27T21:11:13.162Z,18.71
2022-08-27T21:13:55.384Z,18.77
2022-08-27T21:16:24.900Z,18.69
2022-08-27T21:18:54.084Z,18.71
2022-08-27T21:21:22.786Z,18.72
2022-08-27T21:23:51.240Z,18.64
2022-08-27T21:26:22.078Z,18.65
2022-08-27T21:28:49.995Z,18.64
2022-08-27T21:31:25.255Z,18.61
2022-08-27T21:33:53.143Z,18.59
2022-08-27T21:36:20.836Z,18.57
2022-08-27T21:38:48.994Z,18.50
2022-08-27T21:41:16.644Z,18.53
2022-08-27T21:43:44.511Z,18.44
2022-08-27T21:46:12.473Z,18.37
2022-08-27T21:48:40.177Z,18.29
2022-08-27T21:51:13.713Z,18.18
2022-08-27T21:53:42.988Z,18.08
2022-08-27T21:56:12.527Z,18.15
2022-08-27T21:58:40.624Z,18.22
2022-08-27T22:01:09.107Z,18.15
2022-08-27T22:03:37.424Z,18.12
2022-08-27T22:06:07.268Z,18.03
2022-08-27T22:08:35.554Z,17.95
2022-08-27T22:11:03.404Z,17.96
2022-08-27T22:13:32.267Z,17.85
2022-08-27T22:16:00.286Z,17.87
2022-08-27T22:18:28.077Z,17.80
2022-08-27T22:20:58.903Z,17.75
2022-08-27T22:23:27.487Z,17.70
2022-08-27T22:25:55.556Z,17.59
2022-08-27T22:28:23.470Z,17.57
2022-08-27T22:30:51.405Z,17.56
2022-08-27T22:33:19.309Z,17.60
2022-08-27T22:35:47.586Z,17.65
2022-08-27T22:38:15.870Z,17.62
2022-08-27T22:40:43.614Z,17.49
2022-08-27T22:43:12.351Z,17.48
2022-08-27T22:45:40.220Z,17.42
2022-08-27T22:48:07.976Z,17.45
2022-08-27T22:50:35.803Z,17.40
2022-08-27T22:53:04.084Z,17.30
2022-08-27T22:55:31.781Z,17.24
2022-08-27T22:58:01.376Z,17.19
2022-08-27T23:00:33.660Z,17.19
2022-08-27T23:03:02.064Z,17.18
2022-08-27T23:05:40.155Z,17.17
2022-08-27T23:08:12.050Z,17.02
2022-08-27T23:10:42.391Z,17.04
2022-08-27T23:13:12.129Z,16.99
2022-08-27T23:15:40.818Z,16.93
2022-08-27T23:18:08.797Z,16.88
2022-08-27T23:20:36.624Z,16.81
2022-08-27T23:23:04.847Z,16.93
2022-08-27T23:25:52.245Z,17.04
2022-08-27T23:28:20.733Z,16.96
2022-08-27T23:30:49.558Z,17.06
2022-08-27T23:33:17.806Z,17.05
2022-08-27T23:35:48.228Z,16.89
2022-08-27T23:38:20.905Z,16.85
2022-08-27T23:40:50.120Z,16.72
2022-08-27T23:43:18.494Z,16.68
2022-08-27T23:45:46.534Z,16.62
2022-08-27T23:48:14.569Z,16.54
2022-08-27T23:50:44.155Z,16.46
2022-08-27T23:53:13.164Z,16.40
2022-08-27T23:55:41.106Z,16.39
2022-08-27T23:58:10.077Z,16.31
